FlightSpace

METAR
EPPO 221200Z 12010KT 5000 BR NSC M03/M05 Q1015 R10/290095
TAF
TAF EPPO 221130Z 2212/2312 15012KT CAVOK PROB40 TEMPO 2300/2310 2500 -SN BR BKN004 BKN010 BECMG 2303/2306 BKN011
TAF AMD EPPO 220833Z 2208/2306 12010KT 1900 BR OVC004 BECMG 2208/2211 8000 FEW016
TAF EPPO 220530Z 2206/2306 15008KT 3000 BR SCT002 BKN025 PROB40 TEMPO 2206/2208 0300 FZFG BKN001 BECMG 2208/2210 8000 SCT011 PROB30 2302/2306 3000 BR
TAF EPPO 212330Z 2200/2224 VRB02KT 3000 BR SCT010 BKN020 TEMPO 2200/2208 1200 BR BKN007 PROB30 TEMPO 2200/2207 0300 FZFG BKN001 BECMG 2208/2210 13010KT 8000 SCT011
TAF EPPO 211730Z 2118/2218 VRB02KT 3000 BR SCT008 BKN016 TEMPO 2118/2120 2000 BR BKN007 BECMG 2120/2123 1300 BR OVC003 TEMPO 2123/2209 0300 FZFG BKN001 BECMG 2209/2212 13010KT 8000 SCT011

Poznań-Ławica Airport ( EPPO , POZ )


Location
  • Country: PL
  • Region: PL-WP
  • Municipality: Poznań
  • ARP: 52.421 16.8263, elev. 308 ft
  • ICAO Address: EPPO
  • IATA Code: POZ
  • GPS Code: EPPO
  • Ident: EPPO
  • Time Zone: Europe/Warsaw
  • Actual Local Time: 13:06:47
Radio communication
TWR 119.975 MHz POZNAN TWR
ATIS 124.700 MHz POZNAN ATIS
APP 135.525 MHz POZNAN APP
Runways
Direction Width Length Surface
28 50 2504 ASP
10 50 2504 ASP
Comments



Advertisement